createdAt,value
2023-03-03T00:00:25.869Z,50.875427
2023-03-03T00:01:25.859Z,50.875408
2023-03-03T13:06:15.262Z,50.874725
2023-03-03T13:07:15.323Z,50.875416
2023-03-03T13:08:15.298Z,50.875523
2023-03-03T13:09:15.260Z,50.875572
2023-03-03T13:10:15.219Z,50.875782
2023-03-03T13:11:15.253Z,50.875732
2023-03-03T13:12:15.343Z,50.875751
2023-03-03T13:13:15.303Z,50.875660
2023-03-03T13:14:15.193Z,50.875546
2023-03-03T13:15:16.146Z,50.875530
2023-03-03T13:16:17.343Z,50.875557
2023-03-03T13:17:16.313Z,50.875610
2023-03-03T13:18:15.186Z,50.875629
2023-03-03T13:19:15.130Z,50.875923
2023-03-03T13:20:15.141Z,50.875870
2023-03-03T13:21:15.193Z,50.875542
2023-03-03T13:22:15.126Z,50.875404
2023-03-03T13:23:15.136Z,50.875378
2023-03-03T13:24:15.140Z,50.875340
2023-03-03T13:25:15.117Z,50.875359
2023-03-03T13:26:15.059Z,50.875416
2023-03-03T13:27:15.069Z,50.875355
2023-03-03T13:28:15.020Z,50.875244
2023-03-03T13:29:15.075Z,50.875309
2023-03-03T13:30:15.065Z,50.875351
2023-03-03T13:31:15.064Z,50.875378
2023-03-03T13:32:15.140Z,50.875374
2023-03-03T13:33:15.027Z,50.875389
2023-03-03T13:34:15.018Z,50.875332
2023-03-03T13:35:14.980Z,50.875351
2023-03-03T13:36:14.962Z,50.875332
2023-03-03T13:37:15.005Z,50.875336
2023-03-03T13:38:15.011Z,50.875439
2023-03-03T13:39:14.964Z,50.875320
2023-03-03T13:40:14.962Z,50.875340
2023-03-03T16:10:12.286Z,50.875713
2023-03-03T16:11:12.244Z,50.875710
2023-03-03T16:12:12.236Z,50.875439
2023-03-03T16:13:12.351Z,50.875446
2023-03-03T16:14:12.270Z,50.875263
2023-03-03T16:15:12.322Z,50.875637
2023-03-03T16:16:12.269Z,50.876076
2023-03-03T16:17:12.232Z,50.876076
2023-03-03T16:18:12.184Z,50.876076
2023-03-03T16:19:12.172Z,50.876076
2023-03-03T16:20:12.206Z,50.876076
2023-03-03T16:21:12.175Z,50.876076
2023-03-03T16:22:12.157Z,50.876076
2023-03-03T16:23:12.150Z,50.876076
2023-03-03T16:24:12.109Z,50.876076
2023-03-03T16:25:12.135Z,50.876076
2023-03-03T16:26:12.101Z,50.876076
2023-03-03T16:27:12.097Z,50.875256
2023-03-03T16:28:12.095Z,50.875298
2023-03-03T16:29:12.091Z,50.875454
2023-03-03T16:30:12.091Z,50.875454
2023-03-03T16:31:12.073Z,50.875854
2023-03-03T16:32:12.114Z,50.875874
2023-03-03T16:33:12.062Z,50.875961
2023-03-03T16:34:12.032Z,50.875217
2023-03-03T16:35:12.055Z,50.875118
2023-03-03T16:36:12.015Z,50.876846
2023-03-03T16:37:12.001Z,50.876362
2023-03-03T16:38:11.970Z,50.875572
2023-03-03T16:39:11.966Z,50.875004
2023-03-03T16:40:12.010Z,50.875389
2023-03-03T16:41:11.963Z,50.875324
2023-03-03T16:42:11.974Z,50.875534
2023-03-03T16:43:11.966Z,50.875530
2023-03-03T16:44:11.953Z,50.875347
2023-03-03T16:45:11.954Z,50.875725
2023-03-03T16:46:12.010Z,50.875458
2023-03-03T16:47:11.924Z,50.875458
2023-03-03T16:48:11.885Z,50.875458
2023-03-03T16:49:11.904Z,50.875458
2023-03-03T16:50:11.896Z,50.875458
2023-03-03T16:51:11.882Z,50.875458
2023-03-03T16:52:11.893Z,50.875458
2023-03-03T16:53:11.950Z,50.875458
2023-03-03T16:54:11.832Z,50.875458
2023-03-03T16:55:11.899Z,50.875458
2023-03-03T16:56:11.848Z,50.875458
2023-03-03T16:57:11.796Z,50.875458
2023-03-03T16:58:11.791Z,50.875458
2023-03-03T16:59:11.818Z,50.875458
2023-03-03T17:00:11.799Z,50.875458
2023-03-03T17:01:11.874Z,50.875988
2023-03-03T17:02:11.788Z,50.875797
2023-03-03T17:03:11.759Z,50.875542
2023-03-03T17:04:13.789Z,50.875500
2023-03-03T17:05:11.790Z,50.875072
2023-03-03T17:06:11.748Z,50.875385
2023-03-03T17:07:11.739Z,50.875893
2023-03-03T17:08:11.734Z,50.875893
2023-03-03T17:09:15.791Z,50.875893
2023-03-03T17:10:13.682Z,50.875893
2023-03-03T17:11:11.701Z,50.875893
2023-03-03T17:12:11.658Z,50.875893
2023-03-03T17:13:11.626Z,50.875893
2023-03-03T17:14:11.636Z,50.875893
2023-03-03T17:15:11.729Z,50.875893
2023-03-03T17:16:11.723Z,50.875893
2023-03-03T17:17:11.745Z,50.875893
2023-03-03T17:18:11.597Z,50.875893
2023-03-03T17:19:11.586Z,50.875893
2023-03-03T17:20:11.616Z,50.875893
2023-03-03T17:21:11.558Z,50.875893
2023-03-03T17:22:11.541Z,50.875893
2023-03-03T17:23:11.574Z,50.875893
2023-03-03T17:24:11.518Z,50.875893
2023-03-03T17:25:11.543Z,50.875893
2023-03-03T17:26:11.629Z,50.875893
2023-03-03T17:27:11.563Z,50.875893
2023-03-03T17:28:11.512Z,50.875893
2023-03-03T17:29:17.263Z,50.875893
2023-03-03T17:30:11.523Z,50.875893
2023-03-03T17:31:11.528Z,50.875893
2023-03-03T17:32:11.599Z,50.875893
2023-03-03T17:33:11.505Z,50.875893
2023-03-03T17:34:11.485Z,50.875893
2023-03-03T17:35:11.459Z,50.875893
2023-03-03T17:36:11.390Z,50.875893
2023-03-03T17:37:12.429Z,50.875893
2023-03-03T17:38:11.446Z,50.875893
2023-03-03T17:39:12.403Z,50.875893
2023-03-03T17:40:11.396Z,50.875893
2023-03-03T17:41:11.382Z,50.875893
2023-03-03T17:42:11.396Z,50.875893
2023-03-03T17:43:11.378Z,50.875893
2023-03-03T17:44:11.359Z,50.875992
2023-03-03T17:45:11.369Z,50.875992
2023-03-03T17:46:11.437Z,50.875992
2023-03-03T17:47:11.326Z,50.875992
2023-03-03T17:48:11.353Z,50.875992
2023-03-03T17:49:11.331Z,50.875992
2023-03-03T17:50:11.286Z,50.875992
2023-03-03T17:51:11.278Z,50.875992
2023-03-03T17:52:11.229Z,50.875992
2023-03-03T17:53:11.264Z,50.875992
2023-03-03T17:54:11.253Z,50.875992
2023-03-03T17:55:11.228Z,50.853455
2023-03-03T17:56:11.214Z,50.852066
2023-03-03T17:57:11.188Z,50.841480
2023-03-03T17:58:11.216Z,50.841480
2023-03-03T17:59:11.199Z,50.876453
2023-03-03T18:00:11.206Z,50.875679
2023-03-03T18:01:11.195Z,50.875690
2023-03-03T18:02:11.159Z,50.875271
2023-03-03T18:03:11.177Z,50.875156
2023-03-03T18:04:11.180Z,50.874924
2023-03-03T18:05:11.129Z,50.875031
2023-03-03T18:06:11.103Z,50.875145
2023-03-03T18:07:11.117Z,50.875175
2023-03-03T18:08:11.106Z,50.875362
2023-03-03T18:09:14.634Z,50.875275
2023-03-03T18:10:12.094Z,50.875324
2023-03-03T18:11:11.099Z,50.875416
2023-03-03T18:12:11.081Z,50.875381
2023-03-03T18:13:11.049Z,50.875374
2023-03-03T18:14:11.053Z,50.875507
2023-03-03T18:15:11.044Z,50.875534
2023-03-03T18:16:12.485Z,50.875217
2023-03-03T18:17:12.022Z,50.875275
2023-03-03T18:18:11.010Z,50.875366
2023-03-03T18:19:11.004Z,50.875210
2023-03-03T18:20:10.986Z,50.875298
2023-03-03T18:21:10.987Z,50.875385
2023-03-03T18:22:10.932Z,50.875378
2023-03-03T18:23:10.937Z,50.875336
2023-03-03T18:24:10.955Z,50.875580
2023-03-03T18:25:10.928Z,50.875656
2023-03-03T18:26:10.934Z,50.875374
2023-03-03T18:27:10.926Z,50.874977
2023-03-03T18:28:11.927Z,50.875389
2023-03-03T18:29:10.918Z,50.875584
2023-03-03T18:30:10.940Z,50.875576
2023-03-03T18:31:10.959Z,50.875568
2023-03-03T18:32:10.960Z,50.875813
2023-03-03T18:33:10.841Z,50.875385
2023-03-03T18:34:10.841Z,50.875450
2023-03-03T18:35:10.819Z,50.875519
2023-03-03T18:36:10.817Z,50.875309
2023-03-03T18:37:10.832Z,50.875370
2023-03-03T18:38:10.819Z,50.875507
2023-03-03T18:39:10.788Z,50.875252
2023-03-03T18:40:10.829Z,50.875248
2023-03-03T18:41:10.765Z,50.875343
2023-03-03T18:42:10.823Z,50.875298
2023-03-03T18:43:10.777Z,50.875343
2023-03-03T18:44:10.748Z,50.875370
2023-03-03T18:45:10.778Z,50.875290
2023-03-03T18:46:10.822Z,50.875305
2023-03-03T18:47:10.719Z,50.875221
2023-03-03T18:48:10.696Z,50.875652
2023-03-03T18:49:10.685Z,50.875362
2023-03-03T18:50:10.695Z,50.875343
2023-03-03T18:51:10.671Z,50.875427
2023-03-03T18:52:10.659Z,50.875366
2023-03-03T18:53:10.652Z,50.875248
2023-03-03T18:54:10.658Z,50.875015
2023-03-03T18:55:10.641Z,50.875393
2023-03-03T18:56:10.610Z,50.875347
2023-03-03T18:57:10.612Z,50.875385
2023-03-03T18:58:10.610Z,50.875351
2023-03-03T18:59:10.574Z,50.875374
2023-03-03T19:00:10.560Z,50.875328
2023-03-03T19:01:10.642Z,50.875431
2023-03-03T19:02:10.562Z,50.875450
2023-03-03T19:03:10.525Z,50.875355
2023-03-03T19:04:10.533Z,50.875427
2023-03-03T19:05:10.656Z,50.875587
2023-03-03T19:06:10.513Z,50.875546
2023-03-03T19:07:10.512Z,50.875370
2023-03-03T19:08:10.475Z,50.875473
2023-03-03T19:09:10.462Z,50.875416
2023-03-03T19:10:10.546Z,50.875439
2023-03-03T19:11:10.450Z,50.875458
2023-03-03T19:12:10.460Z,50.875282
2023-03-03T19:13:10.431Z,50.875336
2023-03-03T19:14:10.441Z,50.875191
2023-03-03T19:15:12.019Z,50.875343
2023-03-03T19:16:11.410Z,50.875950
2023-03-03T19:17:10.419Z,50.875591
2023-03-03T19:18:10.402Z,50.875584
2023-03-03T19:19:10.369Z,50.875465
2023-03-03T19:20:10.370Z,50.875401
2023-03-03T19:21:10.347Z,50.875481
2023-03-03T19:22:10.349Z,50.875317
2023-03-03T19:23:10.308Z,50.875370
2023-03-03T19:24:10.418Z,50.875469
2023-03-03T19:25:10.302Z,50.875454
2023-03-03T19:26:10.295Z,50.875538
2023-03-03T19:27:10.274Z,50.875549
2023-03-03T19:28:10.252Z,50.875195
2023-03-03T19:29:10.278Z,50.875130
2023-03-03T19:30:10.237Z,50.875336
2023-03-03T19:31:10.329Z,50.875420
2023-03-03T19:32:10.405Z,50.875366
2023-03-03T19:33:10.203Z,50.875393
2023-03-03T19:34:10.203Z,50.875507
2023-03-03T19:35:10.217Z,50.875481
2023-03-03T19:36:10.220Z,50.875465
2023-03-03T19:37:10.203Z,50.875320
2023-03-03T19:38:10.331Z,50.875282
2023-03-03T19:39:10.210Z,50.875423
2023-03-03T19:40:10.150Z,50.875431
2023-03-03T19:41:10.151Z,50.875450
2023-03-03T19:42:10.147Z,50.875580
2023-03-03T19:43:10.134Z,50.875408
2023-03-03T19:44:10.108Z,50.875195
2023-03-03T19:45:10.125Z,50.875271
2023-03-03T19:46:10.153Z,50.875328
2023-03-03T19:47:10.118Z,50.875355
2023-03-03T19:48:10.116Z,50.875374
2023-03-03T19:49:10.088Z,50.875408
2023-03-03T19:50:10.073Z,50.875458
2023-03-03T19:51:10.053Z,50.875538
2023-03-03T19:52:10.054Z,50.875301
2023-03-03T19:53:10.065Z,50.875465
2023-03-03T19:54:10.081Z,50.875290
2023-03-03T19:55:10.070Z,50.875362
2023-03-03T19:56:11.003Z,50.875301
2023-03-03T19:57:10.013Z,50.875408
2023-03-03T19:58:09.994Z,50.875492
2023-03-03T19:59:09.980Z,50.875580
2023-03-03T20:00:09.985Z,50.875751
2023-03-03T20:01:09.952Z,50.875751
2023-03-03T20:02:10.055Z,50.875751
2023-03-03T20:03:09.955Z,50.875751
2023-03-03T20:04:09.945Z,50.875751
2023-03-03T20:05:09.969Z,50.875751
2023-03-03T20:06:09.922Z,50.875751
2023-03-03T20:07:09.885Z,50.875751
2023-03-03T20:08:09.879Z,50.875751
2023-03-03T20:09:09.878Z,50.875751
2023-03-03T20:10:09.856Z,50.875751
2023-03-03T20:11:09.917Z,50.875259
2023-03-03T20:12:09.847Z,50.875404
2023-03-03T20:13:09.860Z,50.875526
2023-03-03T20:14:09.836Z,50.875393
2023-03-03T20:15:09.821Z,50.875435
2023-03-03T20:16:09.866Z,50.875340
2023-03-03T20:17:09.793Z,50.875340
2023-03-03T20:18:09.796Z,50.875320
2023-03-03T20:19:09.783Z,50.875294
2023-03-03T20:20:09.757Z,50.875519
2023-03-03T20:21:09.752Z,50.875675
2023-03-03T20:22:09.740Z,50.875553
2023-03-03T20:23:09.755Z,50.875710
2023-03-03T20:24:09.724Z,50.875572
2023-03-03T20:25:09.725Z,50.875385
2023-03-03T20:26:09.754Z,50.875427
2023-03-03T20:27:09.690Z,50.875381
2023-03-03T20:28:09.699Z,50.875381
2023-03-03T20:29:09.672Z,50.875381
2023-03-03T20:30:09.702Z,50.875381
2023-03-03T20:31:09.675Z,50.875381
2023-03-03T20:32:09.650Z,50.875381
2023-03-03T20:33:09.650Z,50.875381
2023-03-03T20:34:09.641Z,50.875698
2023-03-03T20:35:09.639Z,50.875965
2023-03-03T20:36:09.621Z,50.875923
2023-03-03T20:37:09.670Z,50.875725
2023-03-03T20:38:09.607Z,50.875771
2023-03-03T20:39:09.606Z,50.875710
2023-03-03T20:40:09.577Z,50.875675
2023-03-03T20:41:09.576Z,50.875668
2023-03-03T20:42:09.589Z,50.875275
2023-03-03T20:43:09.596Z,50.875366
2023-03-03T20:44:09.554Z,50.875336
2023-03-03T20:45:09.552Z,50.875389
2023-03-03T20:46:09.646Z,50.875389
2023-03-03T20:47:09.532Z,50.875389
2023-03-03T20:48:12.012Z,50.875389
2023-03-03T20:49:10.510Z,50.875389
2023-03-03T20:50:09.491Z,50.875389
2023-03-03T20:51:09.473Z,50.875389
2023-03-03T20:52:09.475Z,50.875263
2023-03-03T20:53:09.442Z,50.875244
2023-03-03T20:54:09.470Z,50.874935
2023-03-03T20:55:10.667Z,50.875225
2023-03-03T20:56:10.434Z,50.875294
2023-03-03T20:57:09.428Z,50.875362
2023-03-03T20:58:09.401Z,50.875347
2023-03-03T20:59:09.384Z,50.875271
2023-03-03T21:00:09.398Z,50.875252
2023-03-03T21:01:09.417Z,50.875233
2023-03-03T21:02:10.360Z,50.875130
2023-03-03T21:03:09.355Z,50.874805
2023-03-03T21:04:09.376Z,50.875153
2023-03-03T21:05:09.344Z,50.873947
2023-03-03T21:06:10.183Z,50.872913
2023-03-03T21:07:09.299Z,51.629593
2023-03-03T21:08:09.310Z,51.629593
2023-03-03T21:09:09.304Z,51.629593
2023-03-03T21:10:09.323Z,51.629593
2023-03-03T21:11:09.297Z,51.629593
2023-03-03T21:12:09.250Z,51.629593
2023-03-03T21:13:09.268Z,51.629593
2023-03-03T21:14:09.279Z,51.629593
2023-03-03T21:15:09.266Z,51.629593
2023-03-03T21:16:09.259Z,51.629593
2023-03-03T21:17:09.207Z,51.629593
2023-03-03T21:18:09.269Z,51.629593
2023-03-03T21:19:09.302Z,51.629593
2023-03-03T21:20:09.189Z,51.629593
2023-03-03T21:21:09.176Z,51.629593
2023-03-03T21:22:09.181Z,51.629593
2023-03-03T21:23:09.159Z,51.629593
2023-03-03T21:24:09.226Z,51.629593
2023-03-03T21:25:09.134Z,51.629593
2023-03-03T21:26:09.133Z,51.629593
2023-03-03T21:27:09.114Z,51.629593
2023-03-03T21:28:09.129Z,51.629593
2023-03-03T21:29:09.119Z,51.629593
2023-03-03T21:30:09.105Z,51.629593
2023-03-03T21:31:09.105Z,51.629593
2023-03-03T21:32:09.301Z,51.629593
2023-03-03T21:33:09.079Z,51.629593
2023-03-03T21:34:09.552Z,51.629593
2023-03-03T21:35:10.039Z,51.629593
2023-03-03T21:36:09.041Z,51.629593
2023-03-03T21:37:09.018Z,51.629593
2023-03-03T21:38:09.012Z,51.629593
2023-03-03T21:39:09.056Z,51.629593
2023-03-03T21:40:08.974Z,51.629593
2023-03-03T21:41:08.980Z,51.629593
2023-03-03T21:42:08.960Z,51.629593
2023-03-03T21:43:08.970Z,51.629593
2023-03-03T21:44:08.926Z,51.629593
2023-03-03T21:45:08.931Z,51.629593
2023-03-03T21:46:09.033Z,51.629593
2023-03-03T21:47:08.885Z,51.629593
2023-03-03T21:48:09.913Z,51.629593
2023-03-03T21:49:08.940Z,51.629593
2023-03-03T21:50:08.883Z,51.629593
2023-03-03T21:51:08.871Z,51.629593
2023-03-03T21:52:08.865Z,51.629593
2023-03-03T21:53:08.855Z,51.629593
2023-03-03T21:54:08.860Z,51.629593
2023-03-03T21:55:08.824Z,51.629593
2023-03-03T21:56:08.833Z,51.629593
2023-03-03T21:57:08.818Z,50.505707
2023-03-03T21:58:08.798Z,50.505707
2023-03-03T21:59:08.828Z,50.505707
2023-03-03T22:00:08.799Z,50.505707
2023-03-03T22:01:08.870Z,50.505707
2023-03-03T22:02:08.767Z,50.505707
2023-03-03T22:03:08.766Z,50.505707
2023-03-03T22:04:08.771Z,50.875401
2023-03-03T22:05:08.747Z,50.875538
2023-03-03T22:06:08.744Z,50.875622
2023-03-03T22:07:08.687Z,50.875610
2023-03-03T22:08:08.723Z,50.875725
2023-03-03T22:09:08.740Z,50.875679
2023-03-03T22:10:08.726Z,50.875454
2023-03-03T22:11:08.719Z,50.875362
2023-03-03T22:12:08.670Z,50.875454
2023-03-03T22:13:08.652Z,50.875431
2023-03-03T22:14:08.748Z,50.875454
2023-03-03T22:15:08.648Z,50.875481
2023-03-03T22:16:08.720Z,50.875404
2023-03-03T22:17:08.646Z,50.875340
2023-03-03T22:18:08.614Z,50.875252
2023-03-03T22:19:08.636Z,50.875389
2023-03-03T22:20:08.601Z,50.875458
2023-03-03T22:21:08.599Z,50.875534
2023-03-03T22:22:08.556Z,50.875259
2023-03-03T22:23:08.575Z,50.875378
2023-03-03T22:24:08.583Z,50.875366
2023-03-03T22:25:08.574Z,50.875378
2023-03-03T22:26:08.587Z,50.875523
2023-03-03T22:27:08.535Z,50.875473
2023-03-03T22:28:08.554Z,50.874527
2023-03-03T22:29:08.499Z,50.871048
2023-03-03T22:30:08.512Z,50.864243
2023-03-03T22:31:08.559Z,50.859253
2023-03-03T22:32:08.578Z,50.859253
2023-03-03T22:33:08.480Z,50.859253
2023-03-03T22:34:08.450Z,50.859253
2023-03-03T22:35:08.456Z,50.875462
2023-03-03T22:36:08.462Z,50.875801
2023-03-03T22:37:08.419Z,50.875408
2023-03-03T22:38:08.402Z,50.875473
2023-03-03T22:39:08.415Z,50.875271
2023-03-03T22:40:08.441Z,50.875370
2023-03-03T22:41:08.404Z,50.875393
2023-03-03T22:42:08.398Z,50.875542
2023-03-03T22:43:08.405Z,50.875469
2023-03-03T22:44:08.375Z,50.875214
2023-03-03T22:45:08.388Z,50.875500
2023-03-03T22:46:08.392Z,50.875385
2023-03-03T22:47:08.355Z,50.875271
2023-03-03T22:48:08.349Z,50.875381
2023-03-03T22:49:08.383Z,50.875259
2023-03-03T22:50:08.364Z,50.875362
2023-03-03T22:51:08.398Z,50.875854
2023-03-03T22:52:08.312Z,50.875809
2023-03-03T22:53:08.268Z,50.875549
2023-03-03T22:54:08.296Z,50.875557
2023-03-03T22:55:08.294Z,50.875549
2023-03-03T22:56:08.224Z,50.876896
2023-03-03T22:57:08.220Z,50.877232
2023-03-03T22:58:09.412Z,50.875557
2023-03-03T22:59:09.177Z,50.875210
2023-03-03T23:00:08.215Z,50.875229
2023-03-03T23:01:08.239Z,50.875153
2023-03-03T23:02:08.257Z,50.874386
2023-03-03T23:03:08.198Z,50.875462
2023-03-03T23:04:08.211Z,50.878613
2023-03-03T23:05:08.256Z,50.885433
2023-03-03T23:06:08.146Z,50.895397
2023-03-03T23:07:08.117Z,50.899994
2023-03-03T23:08:08.109Z,50.899994
2023-03-03T23:09:08.139Z,50.899994
2023-03-03T23:10:08.089Z,50.899994
2023-03-03T23:11:08.093Z,50.899994
2023-03-03T23:12:08.064Z,50.899994
2023-03-03T23:13:08.156Z,50.899994
2023-03-03T23:14:08.068Z,50.899994
2023-03-03T23:15:08.091Z,50.899994
2023-03-03T23:16:08.113Z,50.875435
2023-03-03T23:17:08.035Z,50.875408
2023-03-03T23:18:08.037Z,50.875408
2023-03-03T23:19:11.169Z,50.875420
2023-03-03T23:20:09.043Z,50.874935
2023-03-03T23:21:08.015Z,50.873463
2023-03-03T23:22:08.000Z,50.875202
2023-03-03T23:23:07.990Z,50.875385
2023-03-03T23:24:07.982Z,50.875523
2023-03-03T23:25:08.036Z,50.875526
2023-03-03T23:26:07.971Z,50.875744
2023-03-03T23:27:08.011Z,50.875492
2023-03-03T23:28:07.932Z,50.875435
2023-03-03T23:29:07.950Z,50.875305
2023-03-03T23:30:07.966Z,50.875458
2023-03-03T23:31:07.916Z,50.875408
2023-03-03T23:32:07.980Z,50.875542
2023-03-03T23:33:07.886Z,50.875481
2023-03-03T23:34:07.891Z,50.875477
2023-03-03T23:35:07.895Z,50.875446
2023-03-03T23:36:07.867Z,50.875408
2023-03-03T23:37:09.344Z,50.875412
2023-03-03T23:38:07.874Z,50.875420
2023-03-03T23:39:07.829Z,50.875504
2023-03-03T23:40:07.833Z,50.875420
2023-03-03T23:41:07.788Z,50.875416
2023-03-03T23:42:07.783Z,50.875423
2023-03-03T23:43:07.809Z,50.875446
2023-03-03T23:44:07.774Z,50.875462
2023-03-03T23:45:07.799Z,50.875404
2023-03-03T23:46:07.769Z,50.875416
2023-03-03T23:47:07.758Z,50.875591
2023-03-03T23:48:07.730Z,50.875408
2023-03-03T23:49:07.751Z,50.875286
2023-03-03T23:50:07.717Z,50.875504
2023-03-03T23:51:07.726Z,50.875443
2023-03-03T23:52:07.698Z,50.875351
2023-03-03T23:53:07.658Z,50.875484
2023-03-03T23:54:07.684Z,50.875408
2023-03-03T23:55:07.650Z,50.875454
2023-03-03T23:56:07.663Z,50.875374
2023-03-03T23:57:07.624Z,50.875385
2023-03-03T23:58:07.656Z,50.875401
2023-03-03T23:59:07.652Z,50.875572
